createdAt,value
2019-04-07T00:01:11.546Z,34.50
2019-04-07T00:03:41.206Z,34.20
2019-04-07T00:06:11.145Z,36.13
2019-04-07T00:08:40.868Z,34.70
2019-04-07T00:11:10.759Z,36.43
2019-04-07T00:13:40.505Z,36.30
2019-04-07T00:16:10.311Z,36.47
2019-04-07T00:18:40.072Z,38.33
2019-04-07T00:21:10.054Z,37.47
2019-04-07T00:23:39.771Z,37.27
2019-04-07T00:26:09.879Z,36.50
2019-04-07T00:28:39.632Z,37.47
2019-04-07T00:31:09.550Z,34.93
2019-04-07T00:33:39.406Z,37.03
2019-04-07T00:36:09.561Z,35.80
2019-04-07T00:38:39.441Z,36.37
2019-04-07T00:41:09.505Z,35.77
2019-04-07T00:43:39.570Z,36.30
2019-04-07T00:46:09.534Z,37.10
2019-04-07T00:48:39.566Z,36.03
2019-04-07T00:51:09.370Z,36.07
2019-04-07T00:53:39.399Z,36.50
2019-04-07T00:56:09.384Z,36.23
2019-04-07T00:58:39.142Z,34.50
2019-04-07T01:01:10.646Z,36.77
2019-04-07T01:03:40.506Z,35.97
2019-04-07T01:06:10.746Z,34.77
2019-04-07T01:08:41.624Z,37.50
2019-04-07T01:11:11.441Z,36.87
2019-04-07T01:13:41.636Z,35.83
2019-04-07T01:16:11.945Z,36.87
2019-04-07T01:18:42.537Z,36.80
2019-04-07T01:21:12.812Z,36.93
2019-04-07T01:23:42.730Z,37.40
2019-04-07T01:26:12.814Z,36.73
2019-04-07T01:28:42.945Z,37.10
2019-04-07T01:31:13.351Z,37.90
2019-04-07T01:33:43.203Z,36.17
2019-04-07T01:36:13.594Z,37.57
2019-04-07T01:38:43.372Z,36.80
2019-04-07T01:41:26.684Z,38.10
2019-04-07T01:43:58.093Z,37.97
2019-04-07T01:46:35.437Z,38.03
2019-04-07T01:49:10.878Z,39.47
2019-04-07T01:51:45.519Z,38.50
2019-04-07T01:54:28.559Z,38.10
2019-04-07T01:57:00.231Z,39.27
2019-04-07T01:59:47.644Z,38.73
2019-04-07T02:02:35.572Z,39.33
2019-04-07T02:05:10.899Z,38.40
2019-04-07T02:07:51.314Z,39.07
2019-04-07T02:10:29.062Z,38.37
2019-04-07T02:13:03.229Z,38.00
2019-04-07T02:15:50.970Z,39.97
2019-04-07T02:18:38.845Z,38.03
2019-04-07T02:21:10.412Z,38.07
2019-04-07T02:23:54.805Z,39.20
2019-04-07T02:26:29.114Z,38.30
2019-04-07T02:29:15.638Z,40.83
2019-04-07T02:31:47.202Z,40.17
2019-04-07T02:34:18.558Z,40.47
2019-04-07T02:37:00.319Z,41.97
2019-04-07T02:39:48.664Z,40.13
2019-04-07T02:42:28.747Z,41.47
2019-04-07T02:45:01.309Z,40.57
2019-04-07T02:47:39.378Z,40.40
2019-04-07T02:50:26.289Z,39.93
2019-04-07T02:53:03.893Z,41.97
2019-04-07T02:55:42.027Z,42.13
2019-04-07T02:58:13.816Z,41.63
2019-04-07T03:00:45.255Z,41.87
2019-04-07T03:03:34.986Z,42.30
2019-04-07T03:06:07.013Z,43.13
2019-04-07T03:08:39.730Z,42.93
2019-04-07T03:11:11.234Z,42.93
2019-04-07T03:13:58.654Z,41.10
2019-04-07T03:16:47.425Z,42.60
2019-04-07T03:19:19.381Z,41.30
2019-04-07T03:21:58.348Z,41.53
2019-04-07T03:24:46.045Z,41.60
2019-04-07T03:27:19.986Z,40.80
2019-04-07T03:29:51.462Z,41.03
2019-04-07T03:32:42.853Z,41.97
2019-04-07T03:35:17.788Z,41.20
2019-04-07T03:37:54.753Z,40.97
2019-04-07T03:40:28.982Z,40.30
2019-04-07T03:43:07.183Z,41.27
2019-04-07T03:45:38.541Z,40.87
2019-04-07T03:48:19.131Z,41.90
2019-04-07T03:50:56.917Z,41.67
2019-04-07T03:53:39.331Z,41.27
2019-04-07T03:56:18.128Z,40.60
2019-04-07T03:58:55.795Z,40.07
2019-04-07T04:01:25.809Z,39.87
2019-04-07T04:03:56.594Z,41.97
2019-04-07T04:06:28.912Z,42.43
2019-04-07T04:08:58.728Z,40.67
2019-04-07T04:11:32.603Z,39.97
2019-04-07T04:14:09.734Z,40.43
2019-04-07T04:16:41.035Z,41.03
2019-04-07T04:19:11.085Z,41.47
2019-04-07T04:21:40.855Z,41.60
2019-04-07T04:24:10.542Z,41.80
2019-04-07T04:26:40.308Z,41.93
2019-04-07T04:29:10.392Z,41.03
2019-04-07T04:31:40.478Z,41.20
2019-04-07T04:34:10.477Z,41.67
2019-04-07T04:36:40.539Z,41.70
2019-04-07T04:39:10.459Z,41.50
2019-04-07T04:41:40.539Z,43.23
2019-04-07T04:44:10.333Z,41.23
2019-04-07T04:46:41.134Z,42.67
2019-04-07T04:49:11.849Z,41.57
2019-04-07T04:51:42.564Z,42.67
2019-04-07T04:54:12.613Z,41.60
2019-04-07T04:56:43.399Z,41.10
2019-04-07T04:59:13.224Z,40.43
2019-04-07T05:01:43.305Z,39.67
2019-04-07T05:04:13.029Z,39.57
2019-04-07T05:06:43.492Z,38.00
2019-04-07T05:09:13.590Z,38.87
2019-04-07T05:11:43.388Z,36.93
2019-04-07T05:14:13.137Z,38.77
2019-04-07T05:16:43.482Z,37.60
2019-04-07T05:19:13.283Z,36.00
2019-04-07T05:21:43.609Z,36.77
2019-04-07T05:24:13.860Z,37.67
2019-04-07T05:26:43.618Z,36.00
2019-04-07T05:29:13.757Z,36.53
2019-04-07T05:31:43.864Z,37.20
2019-04-07T05:34:16.767Z,37.37
2019-04-07T05:36:45.676Z,36.60
2019-04-07T05:39:15.418Z,36.73
2019-04-07T05:41:45.154Z,35.17
2019-04-07T05:44:15.100Z,34.40
2019-04-07T05:46:45.282Z,34.37
2019-04-07T05:49:16.904Z,33.93
2019-04-07T05:51:47.193Z,34.17
2019-04-07T05:54:19.001Z,33.40
2019-04-07T05:56:49.189Z,33.17
2019-04-07T05:59:19.788Z,33.20
2019-04-07T06:01:51.666Z,33.77
2019-04-07T06:04:21.706Z,32.67
2019-04-07T06:06:54.898Z,34.40
2019-04-07T06:09:23.127Z,35.80
2019-04-07T06:11:53.233Z,37.40
2019-04-07T06:14:24.282Z,39.83
2019-04-07T06:16:55.454Z,39.53
2019-04-07T06:19:26.045Z,38.97
2019-04-07T06:21:56.005Z,39.27
2019-04-07T06:24:28.801Z,39.50
2019-04-07T06:26:57.527Z,37.07
2019-04-07T06:29:28.025Z,38.30
2019-04-07T06:32:02.114Z,38.57
2019-04-07T06:34:29.497Z,37.63
2019-04-07T06:36:59.591Z,37.13
2019-04-07T06:39:31.839Z,36.07
2019-04-07T06:42:01.531Z,36.53
2019-04-07T06:44:32.318Z,36.47
2019-04-07T06:47:06.588Z,35.87
2019-04-07T06:49:38.144Z,33.67
2019-04-07T06:52:18.400Z,32.87
2019-04-07T06:55:05.625Z,33.23
2019-04-07T06:57:37.722Z,34.43
2019-04-07T07:00:20.585Z,33.00
2019-04-07T07:03:08.337Z,33.70
2019-04-07T07:05:56.173Z,33.37
2019-04-07T07:08:42.474Z,33.53
2019-04-07T07:11:09.490Z,32.93
2019-04-07T07:13:50.898Z,32.20
2019-04-07T07:16:26.182Z,31.47
2019-04-07T07:19:04.224Z,33.47
2019-04-07T07:21:38.724Z,31.00
2019-04-07T07:24:07.373Z,33.00
2019-04-07T07:26:38.653Z,30.27
2019-04-07T07:29:09.300Z,32.10
2019-04-07T07:31:39.215Z,31.33
2019-04-07T07:34:10.141Z,32.23
2019-04-07T07:36:40.799Z,31.03
2019-04-07T07:39:12.577Z,28.07
2019-04-07T07:41:42.317Z,31.10
2019-04-07T07:44:12.263Z,30.93
2019-04-07T07:46:42.173Z,30.33
2019-04-07T07:49:12.437Z,31.03
2019-04-07T07:51:45.098Z,31.70
2019-04-07T07:54:14.808Z,30.00
2019-04-07T07:56:50.146Z,31.53
2019-04-07T07:59:20.002Z,31.23
2019-04-07T08:01:51.338Z,30.57
2019-04-07T08:04:24.931Z,29.60
2019-04-07T08:06:53.409Z,31.53
2019-04-07T08:09:26.101Z,30.47
2019-04-07T08:11:56.386Z,28.73
2019-04-07T08:14:27.238Z,30.07
2019-04-07T08:17:00.166Z,30.43
2019-04-07T08:19:30.543Z,28.43
2019-04-07T08:22:00.710Z,27.03
2019-04-07T08:24:30.655Z,27.83
2019-04-07T08:27:00.541Z,27.30
2019-04-07T08:29:30.947Z,27.47
2019-04-07T08:32:01.114Z,26.07
2019-04-07T08:34:32.922Z,26.67
2019-04-07T08:37:03.734Z,24.83
2019-04-07T08:39:35.456Z,25.43
2019-04-07T08:42:09.830Z,24.30
2019-04-07T08:44:36.977Z,24.80
2019-04-07T08:47:11.423Z,23.47
2019-04-07T08:49:38.414Z,22.60
2019-04-07T08:52:10.219Z,23.30
2019-04-07T08:54:39.876Z,23.23
2019-04-07T08:57:09.683Z,22.40
2019-04-07T08:59:42.399Z,20.40
2019-04-07T09:02:11.384Z,19.80
2019-04-07T09:04:41.381Z,21.43
2019-04-07T09:07:11.749Z,20.20
2019-04-07T09:09:46.610Z,19.67
2019-04-07T09:12:14.025Z,19.37
2019-04-07T09:14:44.089Z,18.07
2019-04-07T09:17:29.302Z,18.43
2019-04-07T09:19:47.781Z,18.73
2019-04-07T09:22:23.461Z,17.17
2019-04-07T09:25:11.945Z,16.60
2019-04-07T09:27:46.058Z,15.63
2019-04-07T09:30:36.805Z,15.83
2019-04-07T09:33:18.066Z,19.47
2019-04-07T09:35:58.885Z,14.27
2019-04-07T09:38:32.046Z,13.37
2019-04-07T09:41:13.353Z,12.00
2019-04-07T09:43:45.256Z,10.73
2019-04-07T09:46:20.292Z,10.57
2019-04-07T09:48:52.494Z,9.90
2019-04-07T09:51:25.501Z,9.77
2019-04-07T09:54:12.226Z,8.90
2019-04-07T09:57:03.390Z,9.87
2019-04-07T09:59:52.140Z,9.97
2019-04-07T10:02:38.364Z,10.47
2019-04-07T10:05:26.608Z,10.07
2019-04-07T10:08:11.410Z,10.87
2019-04-07T10:10:49.986Z,10.17
2019-04-07T10:13:21.607Z,10.13
2019-04-07T10:15:56.374Z,10.00
2019-04-07T10:18:32.835Z,11.10
2019-04-07T10:21:19.651Z,10.97
2019-04-07T10:23:51.120Z,11.37
2019-04-07T10:26:36.228Z,11.77
2019-04-07T10:29:13.991Z,11.37
2019-04-07T10:31:45.312Z,10.87
2019-04-07T10:34:33.289Z,11.33
2019-04-07T10:37:05.394Z,10.90
2019-04-07T10:39:37.102Z,11.50
2019-04-07T10:42:24.852Z,11.47
2019-04-07T10:45:02.007Z,10.73
2019-04-07T10:47:42.163Z,11.43
2019-04-07T10:50:26.841Z,10.60
2019-04-07T10:52:58.465Z,11.43
2019-04-07T10:55:35.185Z,10.73
2019-04-07T10:58:08.275Z,10.50
2019-04-07T11:00:56.546Z,10.80
2019-04-07T11:03:44.380Z,10.73
2019-04-07T11:06:16.084Z,10.60
2019-04-07T11:08:46.605Z,9.63
2019-04-07T11:11:19.061Z,9.40
2019-04-07T11:14:02.696Z,10.33
2019-04-07T11:16:34.098Z,9.57
2019-04-07T11:19:05.616Z,9.60
2019-04-07T11:21:42.783Z,9.33
2019-04-07T11:24:19.666Z,10.17
2019-04-07T11:26:55.027Z,8.60
2019-04-07T11:29:29.585Z,8.93
2019-04-07T11:32:04.084Z,9.80
2019-04-07T11:34:52.939Z,9.40
2019-04-07T11:37:33.392Z,9.50
2019-04-07T11:40:04.874Z,9.33
2019-04-07T11:42:39.410Z,8.97
2019-04-07T11:45:17.596Z,9.40
2019-04-07T11:47:59.454Z,9.67
2019-04-07T11:50:48.985Z,9.23
2019-04-07T11:53:21.194Z,9.17
2019-04-07T11:55:53.232Z,9.03
2019-04-07T11:58:33.141Z,9.47
2019-04-07T12:01:12.261Z,8.67
2019-04-07T12:03:38.693Z,10.67
2019-04-07T12:06:14.357Z,9.60
2019-04-07T12:08:46.772Z,9.63
2019-04-07T12:11:31.055Z,9.37
2019-04-07T12:14:08.977Z,9.03
2019-04-07T12:16:53.458Z,9.83
2019-04-07T12:19:39.885Z,9.57
2019-04-07T12:22:20.003Z,8.80
2019-04-07T12:24:51.355Z,9.33
2019-04-07T12:27:42.999Z,9.93
2019-04-07T12:30:14.317Z,8.70
2019-04-07T12:32:43.933Z,8.73
2019-04-07T12:35:33.027Z,8.80
2019-04-07T12:38:16.575Z,11.23
2019-04-07T12:40:52.924Z,10.50
2019-04-07T12:43:24.968Z,9.83
2019-04-07T12:45:59.430Z,10.23
2019-04-07T12:48:31.967Z,9.50
2019-04-07T12:51:04.507Z,9.63
2019-04-07T12:53:43.420Z,9.20
2019-04-07T12:56:33.895Z,9.53
2019-04-07T12:59:02.008Z,9.97
2019-04-07T13:01:33.876Z,9.90
2019-04-07T13:04:06.040Z,10.50
2019-04-07T13:06:54.512Z,9.80
2019-04-07T13:09:33.062Z,9.70
2019-04-07T13:12:05.650Z,9.53
2019-04-07T13:14:53.670Z,9.23
2019-04-07T13:17:28.073Z,11.37
2019-04-07T13:20:02.306Z,10.93
2019-04-07T13:22:46.000Z,10.27
2019-04-07T13:25:33.734Z,10.13
2019-04-07T13:28:05.303Z,10.37
2019-04-07T13:30:43.332Z,10.40
2019-04-07T13:33:45.813Z,10.23
2019-04-07T14:40:12.759Z,11.67
2019-04-07T14:42:44.573Z,11.60
2019-04-07T14:45:32.101Z,12.00
2019-04-07T14:48:12.923Z,11.53
2019-04-07T14:50:44.899Z,12.07
2019-04-07T14:53:32.983Z,12.03
2019-04-07T14:56:15.365Z,12.43
2019-04-07T14:58:53.861Z,10.97
2019-04-07T15:01:25.727Z,11.07
2019-04-07T15:03:55.701Z,10.97
2019-04-07T15:06:29.207Z,10.77
2019-04-07T15:09:17.618Z,11.10
2019-04-07T15:11:49.044Z,11.10
2019-04-07T15:14:19.215Z,12.00
2019-04-07T15:16:49.210Z,11.93
2019-04-07T15:19:19.865Z,11.80
2019-04-07T15:21:53.021Z,11.10
2019-04-07T15:24:22.648Z,11.40
2019-04-07T15:26:53.007Z,12.20
2019-04-07T15:29:23.213Z,11.83
2019-04-07T15:31:53.209Z,10.90
2019-04-07T15:34:23.079Z,11.00
2019-04-07T15:36:52.904Z,11.73
2019-04-07T15:39:22.699Z,10.77
2019-04-07T15:41:52.609Z,11.10
2019-04-07T15:44:22.873Z,12.23
2019-04-07T15:46:53.376Z,12.17
2019-04-07T15:49:26.023Z,11.97
2019-04-07T15:51:55.150Z,12.03
2019-04-07T15:54:25.397Z,11.30
2019-04-07T15:56:57.893Z,11.70
2019-04-07T15:59:29.426Z,11.60
2019-04-07T16:01:58.248Z,11.10
2019-04-07T16:04:29.483Z,11.00
2019-04-07T16:07:00.217Z,11.67
2019-04-07T16:09:38.681Z,11.10
2019-04-07T16:12:01.731Z,11.47
2019-04-07T16:14:32.071Z,11.83
2019-04-07T16:17:04.144Z,12.63
2019-04-07T16:19:38.183Z,11.83
2019-04-07T16:22:06.036Z,12.47
2019-04-07T16:24:35.835Z,12.23
2019-04-07T16:27:07.041Z,12.90
2019-04-07T16:29:37.386Z,11.80
2019-04-07T16:32:08.141Z,12.43
2019-04-07T16:34:41.031Z,11.33
2019-04-07T16:37:09.532Z,12.80
2019-04-07T16:39:39.367Z,12.13
2019-04-07T16:42:09.344Z,10.53
2019-04-07T16:44:42.824Z,11.90
2019-04-07T16:47:19.581Z,12.60
2019-04-07T16:49:47.394Z,12.57
2019-04-07T16:52:13.872Z,12.37
2019-04-07T16:54:44.686Z,11.97
2019-04-07T16:57:15.400Z,12.10
2019-04-07T16:59:45.589Z,13.07
2019-04-07T17:02:16.989Z,11.70
2019-04-07T17:04:46.995Z,11.77
2019-04-07T17:07:17.999Z,13.00
2019-04-07T17:09:48.859Z,12.03
2019-04-07T17:12:18.587Z,12.60
2019-04-07T17:14:49.056Z,12.40
2019-04-07T17:17:21.537Z,12.10
2019-04-07T17:19:51.239Z,11.87
2019-04-07T17:22:21.169Z,11.80
2019-04-07T17:24:51.895Z,12.07
2019-04-07T17:27:21.697Z,11.70
2019-04-07T17:29:54.091Z,12.50
2019-04-07T17:32:23.219Z,12.33
2019-04-07T17:34:53.062Z,12.40
2019-04-07T17:37:25.953Z,12.50
2019-04-07T17:39:58.517Z,12.80
2019-04-07T17:42:28.362Z,12.07
2019-04-07T17:45:03.443Z,12.87
2019-04-07T17:47:51.777Z,12.37
2019-04-07T17:50:23.513Z,12.97
2019-04-07T17:52:58.519Z,12.37
2019-04-07T17:55:30.014Z,11.80
2019-04-07T17:58:07.884Z,11.53
2019-04-07T18:00:49.219Z,12.17
2019-04-07T18:03:39.080Z,11.63
2019-04-07T18:06:24.975Z,12.53
2019-04-07T18:09:12.397Z,11.83
2019-04-07T18:11:52.872Z,11.80
2019-04-07T18:14:22.364Z,11.43
2019-04-07T18:16:58.072Z,11.30
2019-04-07T18:19:36.210Z,12.53
2019-04-07T18:22:13.698Z,12.20
2019-04-07T18:24:51.045Z,11.73
2019-04-07T18:27:25.351Z,11.30
2019-04-07T18:30:05.533Z,12.03
2019-04-07T18:32:43.059Z,11.27
2019-04-07T18:35:32.642Z,12.90
2019-04-07T18:38:20.583Z,11.97
2019-04-07T18:41:10.740Z,11.90
2019-04-07T18:43:49.103Z,12.77
2019-04-07T18:46:28.866Z,12.07
2019-04-07T18:49:04.822Z,12.53
2019-04-07T18:51:44.349Z,12.67
2019-04-07T18:54:17.161Z,11.93
2019-04-07T18:57:05.478Z,11.87
2019-04-07T18:59:38.993Z,12.87
2019-04-07T19:02:14.876Z,12.67
2019-04-07T19:04:53.483Z,12.33
2019-04-07T19:07:45.865Z,12.17
2019-04-07T19:10:29.050Z,13.13
2019-04-07T19:13:18.550Z,13.47
2019-04-07T19:15:53.287Z,13.00
2019-04-07T19:18:25.970Z,13.20
2019-04-07T19:21:01.050Z,12.87
2019-04-07T19:23:30.553Z,12.90
2019-04-07T19:26:04.580Z,13.27
2019-04-07T19:28:50.723Z,12.50
2019-04-07T19:31:20.206Z,13.10
2019-04-07T19:33:57.884Z,13.20
2019-04-07T19:36:29.366Z,12.73
2019-04-07T19:39:03.513Z,13.50
2019-04-07T19:41:47.067Z,13.53
2019-04-07T19:44:35.748Z,13.60
2019-04-07T19:47:00.050Z,14.53
2019-04-07T19:49:30.893Z,14.33
2019-04-07T19:52:09.465Z,14.73
2019-04-07T19:54:51.563Z,15.17
2019-04-07T19:57:23.865Z,14.20
2019-04-07T20:00:14.253Z,15.13
2019-04-07T20:03:04.246Z,15.43
2019-04-07T20:05:41.694Z,15.37
2019-04-07T20:08:24.910Z,15.53
2019-04-07T20:10:57.586Z,15.03
2019-04-07T20:13:38.378Z,16.47
2019-04-07T20:16:08.147Z,16.63
2019-04-07T20:18:58.585Z,16.10
2019-04-07T20:21:38.268Z,16.30
2019-04-07T20:24:15.237Z,16.37
2019-04-07T20:26:46.797Z,16.10
2019-04-07T20:29:19.232Z,16.87
2019-04-07T20:32:03.360Z,16.43
2019-04-07T20:34:40.409Z,17.10
2019-04-07T20:37:09.374Z,17.53
2019-04-07T20:39:45.138Z,17.63
2019-04-07T20:42:25.747Z,18.13
2019-04-07T20:45:03.831Z,17.63
2019-04-07T20:47:31.768Z,17.73
2019-04-07T20:50:19.600Z,18.67
2019-04-07T20:52:49.073Z,18.70
2019-04-07T20:55:37.316Z,17.67
2019-04-07T20:58:23.800Z,17.90
2019-04-07T21:01:04.186Z,18.03
2019-04-07T21:03:45.046Z,18.93
2019-04-07T21:06:15.310Z,18.80
2019-04-07T21:09:01.420Z,18.47
2019-04-07T21:11:49.291Z,18.47
2019-04-07T21:14:20.858Z,18.53
2019-04-07T21:16:50.986Z,19.37
2019-04-07T21:19:22.863Z,19.17
2019-04-07T21:21:58.603Z,19.23
2019-04-07T21:24:49.783Z,20.10
2019-04-07T21:27:20.865Z,18.53
2019-04-07T21:29:58.016Z,18.60
2019-04-07T21:32:48.618Z,18.60
2019-04-07T21:35:35.355Z,19.13
2019-04-07T21:38:18.293Z,18.80
2019-04-07T21:40:51.363Z,20.53
2019-04-07T21:43:37.898Z,18.70
2019-04-07T21:46:22.435Z,19.17
2019-04-07T21:48:51.614Z,18.83
2019-04-07T21:51:29.157Z,18.50
2019-04-07T21:54:02.739Z,17.87
2019-04-07T21:56:37.163Z,19.50
2019-04-07T21:59:09.676Z,19.53
2019-04-07T22:01:41.230Z,18.93
2019-04-07T22:04:29.838Z,20.00
2019-04-07T22:07:01.664Z,19.87
2019-04-07T22:09:33.088Z,18.10
2019-04-07T22:12:03.117Z,19.03
2019-04-07T22:14:34.957Z,19.30
2019-04-07T22:17:05.298Z,18.70
2019-04-07T22:19:35.887Z,20.27
2019-04-07T22:22:06.660Z,20.27
2019-04-07T22:24:38.320Z,19.30
2019-04-07T22:27:09.118Z,19.40
2019-04-07T22:29:39.033Z,19.77
2019-04-07T22:32:08.974Z,19.73
2019-04-07T22:34:38.917Z,19.83
2019-04-07T22:37:08.600Z,18.93
2019-04-07T22:39:38.418Z,20.17
2019-04-07T22:42:08.570Z,20.03
2019-04-07T22:44:38.442Z,20.50
2019-04-07T22:47:09.173Z,19.30
2019-04-07T22:49:39.641Z,19.93
2019-04-07T22:52:09.660Z,19.90
2019-04-07T22:54:40.665Z,20.70
2019-04-07T22:57:13.108Z,20.03
2019-04-07T22:59:41.873Z,21.13
2019-04-07T23:02:11.701Z,21.10
2019-04-07T23:04:41.448Z,19.87
2019-04-07T23:07:11.735Z,20.03
2019-04-07T23:09:41.627Z,19.87
2019-04-07T23:12:11.331Z,19.93
2019-04-07T23:14:42.114Z,20.57
2019-04-07T23:17:12.046Z,21.70
2019-04-07T23:19:41.997Z,20.37
2019-04-07T23:22:11.877Z,20.73
2019-04-07T23:24:41.712Z,19.90
2019-04-07T23:27:12.398Z,21.20
2019-04-07T23:29:42.310Z,19.90
2019-04-07T23:32:12.138Z,20.47
2019-04-07T23:34:41.811Z,20.80
2019-04-07T23:37:12.351Z,21.10
2019-04-07T23:39:42.077Z,19.90
2019-04-07T23:42:12.593Z,19.60
2019-04-07T23:44:42.646Z,20.57
2019-04-07T23:47:13.511Z,20.73
2019-04-07T23:49:43.252Z,19.40
2019-04-07T23:52:12.965Z,20.93
2019-04-07T23:54:42.637Z,21.80
2019-04-07T23:57:12.363Z,20.60
2019-04-07T23:59:42.240Z,20.37
